Time;durP1;ratioP1;P1;durP2;ratioP2;P2;SDS_P1;SDS_P2;PMS_P1;PMS_P2;Temp;Humidity;BMP_temperature;BMP_pressure;BME280_temperature;BME280_humidity;BME280_pressure;Samples;Min_cycle;Max_cycle;Signal;HPM_P1;HPM_P2
2023/03/09 00:00:49;;;;;;;32.45;15.88;;;4.00;99.90;;;;;;5064367;28;20127;-66
2023/03/09 00:03:17;;;;;;;29.95;14.07;;;4.00;99.90;;;;;;5053568;28;20037;-66
2023/03/09 00:05:51;;;;;;;28.00;14.50;;;4.00;99.90;;;;;;5067668;28;20039;-66
2023/03/09 00:08:17;;;;;;;26.88;14.15;;;4.00;99.90;;;;;;5072149;28;20490;-66
2023/03/09 00:10:42;;;;;;;28.15;14.63;;;4.00;99.90;;;;;;5066408;28;20074;-67
2023/03/09 00:13:08;;;;;;;23.17;13.13;;;4.10;99.90;;;;;;5051368;28;20073;-66
2023/03/09 00:15:34;;;;;;;25.90;13.95;;;4.10;99.90;;;;;;5068954;28;20501;-66
2023/03/09 00:17:59;;;;;;;27.00;14.52;;;4.10;99.90;;;;;;5068925;28;20021;-66
2023/03/09 00:20:25;;;;;;;29.90;14.27;;;4.20;99.90;;;;;;5068597;28;20032;-66
2023/03/09 00:22:53;;;;;;;29.00;13.60;;;4.20;99.90;;;;;;5069475;28;20024;-65
2023/03/09 00:25:21;;;;;;;29.95;14.48;;;4.30;99.90;;;;;;5069951;28;20025;-66
2023/03/09 00:27:48;;;;;;;27.92;13.25;;;4.30;99.90;;;;;;5069882;28;20024;-67
2023/03/09 00:30:14;;;;;;;38.88;17.15;;;4.30;99.90;;;;;;5073387;28;20027;-66
2023/03/09 00:32:40;;;;;;;48.30;23.45;;;4.20;99.90;;;;;;5058097;28;20115;-67
2023/03/09 00:35:08;;;;;;;33.17;18.55;;;4.20;99.90;;;;;;5074917;28;20143;-67
2023/03/09 00:37:34;;;;;;;25.40;13.98;;;4.10;99.90;;;;;;5068727;28;20562;-66
2023/03/09 00:40:00;;;;;;;21.88;11.73;;;4.20;99.90;;;;;;5067237;28;20099;-66
2023/03/09 00:42:26;;;;;;;24.75;11.65;;;4.20;99.90;;;;;;5069866;28;20162;-66
2023/03/09 00:44:52;;;;;;;20.55;10.15;;;4.20;99.90;;;;;;5062787;28;20115;-66
2023/03/09 00:47:18;;;;;;;21.33;10.25;;;4.20;99.90;;;;;;5074696;28;20465;-66
2023/03/09 00:49:45;;;;;;;23.80;11.40;;;4.30;99.90;;;;;;5054338;28;20028;-67
2023/03/09 00:52:10;;;;;;;20.42;10.13;;;4.40;99.90;;;;;;5069909;28;20085;-67
2023/03/09 00:54:36;;;;;;;25.48;11.27;;;4.50;99.90;;;;;;5071254;28;20104;-66
2023/03/09 00:57:02;;;;;;;22.50;12.02;;;4.60;99.90;;;;;;5075685;28;20032;-67
2023/03/09 00:59:28;;;;;;;63.10;12.10;;;4.60;99.90;;;;;;5069075;28;20397;-67
2023/03/09 01:01:53;;;;;;;27.77;11.13;;;4.50;99.90;;;;;;5078044;28;20154;-67
2023/03/09 01:04:19;;;;;;;44.50;12.57;;;4.40;99.90;;;;;;5056327;28;20131;-67
2023/03/09 01:06:45;;;;;;;44.78;13.02;;;4.40;99.90;;;;;;5074030;28;20024;-66
2023/03/09 01:09:10;;;;;;;84.65;15.57;;;4.30;99.90;;;;;;5067756;28;20451;-66
2023/03/09 01:11:37;;;;;;;55.85;14.05;;;4.20;99.90;;;;;;5071378;28;20495;-67
2023/03/09 01:14:03;;;;;;;27.45;14.57;;;4.10;99.90;;;;;;5074193;28;20090;-67
2023/03/09 01:16:28;;;;;;;26.42;14.50;;;4.00;99.90;;;;;;5071274;28;20040;-67
2023/03/09 01:18:54;;;;;;;65.38;15.70;;;4.00;99.90;;;;;;5073350;28;20388;-66
2023/03/09 01:21:20;;;;;;;37.25;12.65;;;4.00;99.90;;;;;;5071192;28;20032;-66
2023/03/09 01:23:45;;;;;;;21.90;12.18;;;4.00;99.90;;;;;;5066460;28;20029;-66
2023/03/09 01:26:11;;;;;;;25.25;11.88;;;4.00;99.90;;;;;;5068901;28;20030;-66
2023/03/09 01:28:37;;;;;;;23.50;11.35;;;4.00;99.90;;;;;;5069206;28;20024;-66
2023/03/09 01:31:08;;;;;;;30.30;12.10;;;4.00;99.90;;;;;;5051545;28;20020;-68
2023/03/09 01:33:34;;;;;;;25.00;11.73;;;4.00;99.90;;;;;;5074608;28;20032;-66
2023/03/09 01:36:02;;;;;;;23.45;12.05;;;4.00;99.90;;;;;;5068583;28;20473;-66
2023/03/09 01:38:28;;;;;;;21.85;10.43;;;4.10;99.90;;;;;;5070297;28;20035;-67
2023/03/09 01:40:54;;;;;;;23.88;11.27;;;4.10;99.90;;;;;;5062657;28;20119;-66
2023/03/09 01:43:25;;;;;;;21.55;11.02;;;4.10;99.90;;;;;;5060577;28;20024;-66
2023/03/09 01:46:32;;;;;;;23.58;11.98;;;4.10;99.90;;;;;;5071696;28;20394;-67
2023/03/09 01:49:19;;;;;;;21.35;9.82;;;4.10;99.90;;;;;;4967316;28;20803;-66
2023/03/09 01:51:53;;;;;;;23.88;10.43;;;4.10;99.90;;;;;;4962361;28;20038;-66
2023/03/09 01:54:28;;;;;;;24.50;11.80;;;4.10;99.90;;;;;;5032220;28;20051;-66
2023/03/09 01:56:59;;;;;;;23.35;11.70;;;4.10;99.90;;;;;;5072798;28;20027;-66
2023/03/09 01:59:30;;;;;;;22.70;10.95;;;4.10;99.90;;;;;;5070173;28;20028;-67
2023/03/09 02:01:55;;;;;;;27.55;10.18;;;4.10;99.90;;;;;;5076491;28;20028;-67
2023/03/09 02:04:27;;;;;;;34.88;11.80;;;4.00;99.90;;;;;;5055873;28;20052;-67
2023/03/09 02:06:54;;;;;;;31.60;12.18;;;4.00;99.90;;;;;;5070669;28;20023;-67
2023/03/09 02:09:25;;;;;;;21.27;10.90;;;4.00;99.90;;;;;;5064985;28;20123;-64
2023/03/09 02:11:51;;;;;;;22.63;10.68;;;4.10;99.90;;;;;;5057366;28;20051;-65
2023/03/09 02:14:17;;;;;;;28.30;11.68;;;4.10;99.90;;;;;;5058792;28;20737;-68
2023/03/09 02:16:43;;;;;;;21.27;10.93;;;4.10;99.90;;;;;;5059567;28;20037;-67
2023/03/09 02:19:22;;;;;;;32.50;11.90;;;4.20;99.90;;;;;;5060876;28;20039;-65
2023/03/09 02:21:51;;;;;;;26.55;11.38;;;4.20;99.90;;;;;;5063343;28;20024;-65
2023/03/09 02:24:24;;;;;;;23.98;11.85;;;4.30;99.90;;;;;;5066821;28;20146;-65
2023/03/09 02:26:54;;;;;;;27.55;10.07;;;4.30;99.90;;;;;;5056704;28;20028;-65
2023/03/09 02:29:20;;;;;;;65.53;10.10;;;4.30;99.90;;;;;;5059901;28;20048;-65
2023/03/09 02:31:46;;;;;;;26.98;11.05;;;4.40;99.90;;;;;;5057950;28;20029;-65
2023/03/09 02:34:12;;;;;;;59.00;10.57;;;4.40;99.90;;;;;;5056641;28;20052;-65
2023/03/09 02:36:38;;;;;;;45.65;9.95;;;4.50;99.90;;;;;;5058412;28;20035;-64
2023/03/09 02:39:41;;;;;;;48.58;9.02;;;4.50;99.90;;;;;;5037945;28;20020;-64
2023/03/09 02:42:07;;;;;;;67.50;10.43;;;4.60;99.90;;;;;;5056626;28;20032;-65
2023/03/09 02:44:33;;;;;;;82.70;12.73;;;4.60;99.90;;;;;;5055598;28;20056;-65
2023/03/09 02:47:08;;;;;;;26.75;9.75;;;4.70;99.90;;;;;;5040566;28;20050;-65
2023/03/09 02:49:34;;;;;;;53.65;10.57;;;4.70;99.90;;;;;;5059043;28;20032;-66
2023/03/09 02:52:01;;;;;;;64.30;9.52;;;4.70;99.90;;;;;;5059915;28;20052;-66
2023/03/09 02:54:26;;;;;;;118.43;11.07;;;4.80;99.90;;;;;;5057468;28;20028;-65
2023/03/09 02:56:52;;;;;;;117.85;12.35;;;4.80;99.90;;;;;;5056771;28;20035;-66
2023/03/09 02:59:17;;;;;;;115.30;12.00;;;4.70;99.90;;;;;;5058488;28;20042;-66
2023/03/09 03:01:43;;;;;;;75.60;11.13;;;4.70;99.90;;;;;;5054018;28;20036;-66
2023/03/09 03:04:08;;;;;;;67.63;9.70;;;4.70;99.90;;;;;;5046602;28;20041;-66
2023/03/09 03:06:34;;;;;;;57.47;10.05;;;4.80;99.90;;;;;;5057814;28;20040;-66
2023/03/09 03:09:00;;;;;;;52.22;10.15;;;4.80;99.90;;;;;;5056952;28;20082;-66
2023/03/09 03:11:25;;;;;;;90.68;11.95;;;4.80;99.90;;;;;;5065838;28;20029;-66
2023/03/09 03:13:51;;;;;;;71.18;12.43;;;4.70;99.90;;;;;;5059039;28;20112;-65
2023/03/09 03:16:17;;;;;;;88.25;11.82;;;4.70;99.90;;;;;;5057988;28;20016;-66
2023/03/09 03:18:42;;;;;;;92.38;11.43;;;4.70;99.90;;;;;;5054623;28;20043;-65
2023/03/09 03:21:08;;;;;;;83.65;13.80;;;4.60;99.90;;;;;;5057116;28;20028;-66
2023/03/09 03:23:33;;;;;;;66.57;11.85;;;4.60;99.90;;;;;;5058357;28;20623;-66
2023/03/09 03:26:10;;;;;;;36.38;11.60;;;4.60;99.90;;;;;;5043291;28;20032;-66
2023/03/09 03:28:36;;;;;;;53.47;11.23;;;4.60;99.90;;;;;;5058681;28;20052;-66
2023/03/09 03:31:02;;;;;;;99.97;11.65;;;4.60;99.90;;;;;;5055217;28;20056;-65
2023/03/09 03:33:28;;;;;;;33.08;9.30;;;4.60;99.90;;;;;;5056417;28;20029;-65
2023/03/09 03:35:54;;;;;;;46.45;11.40;;;4.50;99.90;;;;;;5055625;28;20033;-65
2023/03/09 03:38:20;;;;;;;70.15;11.13;;;4.50;99.90;;;;;;5056954;28;20029;-65
2023/03/09 03:40:45;;;;;;;41.35;10.40;;;4.50;99.90;;;;;;5058191;28;21723;-65
2023/03/09 03:43:11;;;;;;;51.30;10.82;;;4.50;99.90;;;;;;5055370;28;20047;-65
2023/03/09 03:45:37;;;;;;;57.88;10.82;;;4.50;99.90;;;;;;5054124;28;20624;-67
2023/03/09 03:48:03;;;;;;;36.15;11.35;;;4.50;99.90;;;;;;5056516;28;20036;-65
2023/03/09 03:50:28;;;;;;;37.75;10.32;;;4.50;99.90;;;;;;5055397;28;20056;-65
2023/03/09 03:52:54;;;;;;;24.98;10.18;;;4.50;99.90;;;;;;5051365;28;20141;-66
2023/03/09 03:55:20;;;;;;;35.20;10.00;;;4.40;99.90;;;;;;5053494;28;20512;-65
2023/03/09 03:57:45;;;;;;;47.15;10.07;;;4.40;99.90;;;;;;5059355;28;20024;-65
2023/03/09 04:00:11;;;;;;;38.13;10.38;;;4.40;99.90;;;;;;5057626;28;20107;-66
2023/03/09 04:02:38;;;;;;;43.55;9.77;;;4.40;99.90;;;;;;5055174;28;20032;-66
2023/03/09 04:05:05;;;;;;;81.35;12.40;;;4.40;99.90;;;;;;5038930;28;20525;-66
2023/03/09 04:07:31;;;;;;;126.53;13.50;;;4.40;99.90;;;;;;5053972;28;20044;-65
2023/03/09 04:09:56;;;;;;;43.17;11.07;;;4.40;99.90;;;;;;5035930;28;20028;-65
2023/03/09 04:12:22;;;;;;;33.65;11.82;;;4.40;99.90;;;;;;5060608;28;20028;-66
2023/03/09 04:14:48;;;;;;;72.38;14.93;;;4.40;99.90;;;;;;5041498;28;20024;-65
2023/03/09 04:17:13;;;;;;;64.30;14.85;;;4.40;99.90;;;;;;5058513;28;20020;-66
2023/03/09 04:19:39;;;;;;;36.33;12.52;;;4.30;99.90;;;;;;5055831;28;20025;-65
2023/03/09 04:22:06;;;;;;;50.28;11.82;;;4.30;99.90;;;;;;5055523;28;20399;-65
2023/03/09 04:24:32;;;;;;;70.65;12.60;;;4.30;99.90;;;;;;5058411;28;20453;-64
2023/03/09 04:26:58;;;;;;;51.55;13.23;;;4.30;99.90;;;;;;5056998;28;20033;-65
2023/03/09 04:29:24;;;;;;;37.75;11.68;;;4.30;99.90;;;;;;5058139;28;20036;-65
2023/03/09 04:31:49;;;;;;;59.72;12.95;;;4.30;99.90;;;;;;5055185;28;20039;-65
2023/03/09 04:34:15;;;;;;;40.65;12.57;;;4.30;99.90;;;;;;5055608;28;20143;-65
2023/03/09 04:36:41;;;;;;;38.97;11.65;;;4.30;99.90;;;;;;5055551;28;20036;-65
2023/03/09 04:39:06;;;;;;;59.63;13.45;;;4.30;99.90;;;;;;5057991;28;20666;-64
2023/03/09 04:41:32;;;;;;;32.97;13.55;;;4.20;99.90;;;;;;5038512;28;20036;-66
2023/03/09 04:43:58;;;;;;;40.78;12.77;;;4.20;99.90;;;;;;5054874;28;20041;-64
2023/03/09 04:46:23;;;;;;;33.13;12.25;;;4.20;99.90;;;;;;5059104;28;20029;-65
2023/03/09 04:48:49;;;;;;;36.15;12.82;;;4.10;99.90;;;;;;5051967;28;20162;-65
2023/03/09 04:51:15;;;;;;;33.25;13.18;;;4.10;99.90;;;;;;5057413;28;20036;-65
2023/03/09 04:53:40;;;;;;;37.05;13.07;;;4.10;99.90;;;;;;5052019;28;20537;-65
2023/03/09 04:56:06;;;;;;;27.63;11.20;;;4.10;99.90;;;;;;5057696;28;21554;-66
2023/03/09 04:58:32;;;;;;;32.60;13.18;;;4.20;99.90;;;;;;5055019;28;20032;-65
2023/03/09 05:01:00;;;;;;;29.55;10.52;;;4.20;99.90;;;;;;5054327;28;20048;-65
2023/03/09 05:03:26;;;;;;;28.27;11.38;;;4.10;99.90;;;;;;5059081;28;20120;-65
2023/03/09 05:05:52;;;;;;;27.48;10.88;;;4.10;99.90;;;;;;5033981;28;20131;-65
2023/03/09 05:08:17;;;;;;;27.70;10.77;;;4.10;99.90;;;;;;5055260;28;20044;-66
2023/03/09 05:10:43;;;;;;;26.92;11.52;;;4.10;99.90;;;;;;5055667;28;20099;-65
2023/03/09 05:13:08;;;;;;;33.38;11.57;;;4.10;99.90;;;;;;5062884;28;20115;-65
2023/03/09 05:15:38;;;;;;;22.38;9.88;;;4.10;99.90;;;;;;5059812;28;20020;-65
2023/03/09 05:18:03;;;;;;;32.13;11.02;;;4.10;99.90;;;;;;5058430;28;20028;-65
2023/03/09 05:20:29;;;;;;;31.20;11.93;;;4.10;99.90;;;;;;5063875;28;20013;-65
2023/03/09 05:22:54;;;;;;;25.05;10.55;;;4.10;99.90;;;;;;5058681;28;20664;-65
2023/03/09 05:25:22;;;;;;;34.40;12.25;;;4.10;99.90;;;;;;5061423;28;20033;-66
2023/03/09 05:27:48;;;;;;;32.72;13.30;;;4.10;99.90;;;;;;5060882;28;20155;-66
2023/03/09 05:30:13;;;;;;;29.90;11.65;;;4.10;99.90;;;;;;5058086;28;20119;-66
2023/03/09 05:32:39;;;;;;;26.42;10.57;;;4.10;99.90;;;;;;5059578;28;20047;-66
2023/03/09 05:35:05;;;;;;;29.58;10.98;;;4.10;99.90;;;;;;5060473;28;20086;-65
2023/03/09 05:37:32;;;;;;;23.92;10.55;;;4.10;99.90;;;;;;5041138;28;20029;-65
2023/03/09 05:39:58;;;;;;;28.33;10.88;;;4.10;99.90;;;;;;5042108;28;20390;-66
2023/03/09 05:42:23;;;;;;;23.98;9.15;;;4.10;99.90;;;;;;5060460;28;20047;-67
2023/03/09 05:44:49;;;;;;;20.98;8.98;;;4.10;99.90;;;;;;5059996;28;20032;-66
2023/03/09 05:47:15;;;;;;;22.08;8.52;;;4.10;99.90;;;;;;5057876;28;20043;-66
2023/03/09 05:49:40;;;;;;;17.55;8.30;;;4.10;99.90;;;;;;5062080;28;20059;-66
2023/03/09 05:52:06;;;;;;;18.20;7.38;;;4.10;99.90;;;;;;5058525;28;20048;-66
2023/03/09 05:54:32;;;;;;;16.60;8.13;;;4.10;99.90;;;;;;5059864;28;20028;-66
2023/03/09 05:56:58;;;;;;;18.95;8.00;;;4.10;99.90;;;;;;5058331;28;20097;-66
2023/03/09 05:59:23;;;;;;;25.90;8.85;;;4.10;99.90;;;;;;5058842;28;20044;-66
2023/03/09 06:01:49;;;;;;;20.38;9.55;;;4.20;99.90;;;;;;5058372;28;20067;-66
2023/03/09 06:04:15;;;;;;;22.98;10.30;;;4.20;99.90;;;;;;5044950;28;20128;-66
2023/03/09 06:06:40;;;;;;;14.38;8.50;;;4.20;99.90;;;;;;5055155;28;20119;-65
2023/03/09 06:09:06;;;;;;;14.13;7.40;;;4.20;99.90;;;;;;5056786;28;20466;-66
2023/03/09 06:11:31;;;;;;;15.68;7.53;;;4.10;99.90;;;;;;5038213;28;20029;-65
2023/03/09 06:13:57;;;;;;;16.80;7.63;;;4.20;99.90;;;;;;5059877;28;20035;-66
2023/03/09 06:16:24;;;;;;;17.80;8.27;;;4.10;99.90;;;;;;5067221;28;20039;-66
2023/03/09 06:18:50;;;;;;;15.48;7.65;;;4.10;99.90;;;;;;5058381;28;20028;-66
2023/03/09 06:21:15;;;;;;;16.15;7.68;;;4.10;99.90;;;;;;5054667;28;20020;-66
2023/03/09 06:23:41;;;;;;;18.63;7.65;;;4.10;99.90;;;;;;5063617;28;20024;-66
2023/03/09 06:26:10;;;;;;;16.25;7.55;;;4.10;99.90;;;;;;5058181;28;20140;-65
2023/03/09 06:28:36;;;;;;;15.23;6.75;;;4.10;99.90;;;;;;5056936;28;20032;-65
2023/03/09 06:31:06;;;;;;;17.60;7.60;;;4.10;99.90;;;;;;5056202;28;20080;-65
2023/03/09 06:33:32;;;;;;;17.35;7.93;;;4.10;99.90;;;;;;5040827;28;20033;-65
2023/03/09 06:36:00;;;;;;;15.82;7.28;;;4.10;99.90;;;;;;5061520;28;20512;-66
2023/03/09 06:38:26;;;;;;;15.45;7.78;;;4.10;99.90;;;;;;5058865;28;20028;-65
2023/03/09 06:40:55;;;;;;;20.13;8.45;;;4.20;99.90;;;;;;5055713;28;20097;-65
2023/03/09 06:43:21;;;;;;;18.65;8.57;;;4.20;99.90;;;;;;5055835;28;20585;-66
2023/03/09 06:45:47;;;;;;;21.88;7.82;;;4.20;99.90;;;;;;5061956;28;20036;-66
2023/03/09 06:48:13;;;;;;;16.63;8.05;;;4.20;99.90;;;;;;5054740;28;20651;-66
2023/03/09 06:50:39;;;;;;;16.17;7.78;;;4.20;99.90;;;;;;5056303;28;20029;-66
2023/03/09 06:53:04;;;;;;;26.60;8.55;;;4.20;99.90;;;;;;5060300;28;20045;-67
2023/03/09 06:55:30;;;;;;;17.50;8.13;;;4.30;99.90;;;;;;5057268;28;20063;-66
2023/03/09 06:57:56;;;;;;;15.48;7.55;;;4.30;99.90;;;;;;5053252;28;20051;-66
2023/03/09 07:00:22;;;;;;;17.80;7.85;;;4.30;99.90;;;;;;5056490;28;20074;-65
2023/03/09 07:02:47;;;;;;;13.88;7.32;;;4.30;99.90;;;;;;5057001;28;20060;-66
2023/03/09 07:05:14;;;;;;;19.58;9.70;;;4.30;99.90;;;;;;5040551;28;20048;-66
2023/03/09 07:07:42;;;;;;;15.20;8.10;;;4.40;99.90;;;;;;5035649;28;20032;-66
2023/03/09 07:10:11;;;;;;;15.48;8.27;;;4.40;99.90;;;;;;5055246;28;20040;-66
2023/03/09 07:12:37;;;;;;;14.30;6.78;;;4.40;99.90;;;;;;5059335;28;20113;-66
2023/03/09 07:15:03;;;;;;;14.25;7.70;;;4.50;99.90;;;;;;5056097;28;20052;-65
2023/03/09 07:17:29;;;;;;;16.15;8.10;;;4.50;99.90;;;;;;5041715;28;20398;-66
2023/03/09 07:19:56;;;;;;;9.13;5.47;;;4.50;99.90;;;;;;5059430;28;20032;-66
2023/03/09 07:22:22;;;;;;;11.00;6.20;;;4.60;99.90;;;;;;5057838;28;20094;-65
2023/03/09 07:24:48;;;;;;;10.63;5.20;;;4.70;99.90;;;;;;5059418;28;20157;-66
2023/03/09 07:27:14;;;;;;;11.18;5.85;;;4.90;99.90;;;;;;5056720;28;20159;-66
2023/03/09 07:29:40;;;;;;;11.00;5.32;;;5.00;99.90;;;;;;5053751;28;20399;-66
2023/03/09 07:32:06;;;;;;;12.75;6.47;;;5.10;99.90;;;;;;5038403;28;20032;-66
2023/03/09 07:34:33;;;;;;;11.55;5.00;;;5.00;99.90;;;;;;5053522;28;20063;-66
2023/03/09 07:36:59;;;;;;;8.90;4.95;;;5.10;99.90;;;;;;5056559;28;20028;-67
2023/03/09 07:39:25;;;;;;;12.40;5.43;;;5.10;99.90;;;;;;5053057;28;20054;-66
2023/03/09 07:41:50;;;;;;;12.45;6.30;;;5.10;99.90;;;;;;5037202;28;20506;-65
2023/03/09 07:44:16;;;;;;;18.50;7.32;;;5.10;99.90;;;;;;5058905;28;20017;-66
2023/03/09 07:46:42;;;;;;;11.60;5.88;;;5.10;99.90;;;;;;5039781;28;20039;-65
2023/03/09 07:49:08;;;;;;;11.02;6.13;;;5.10;99.90;;;;;;5060222;28;20047;-64
2023/03/09 07:51:34;;;;;;;18.70;6.57;;;5.10;99.90;;;;;;5056640;28;20087;-64
2023/03/09 07:53:59;;;;;;;19.42;6.28;;;5.20;99.90;;;;;;5056416;28;20032;-65
2023/03/09 07:56:25;;;;;;;19.08;5.40;;;5.20;99.90;;;;;;5055352;28;20044;-64
2023/03/09 07:58:52;;;;;;;20.70;6.43;;;5.30;99.90;;;;;;5053462;28;20021;-66
2023/03/09 08:01:18;;;;;;;16.15;8.02;;;5.40;99.90;;;;;;5053224;28;20112;-66
2023/03/09 08:03:45;;;;;;;66.90;7.45;;;5.40;99.90;;;;;;5054446;28;20033;-67
2023/03/09 08:06:12;;;;;;;33.55;6.72;;;5.40;99.90;;;;;;5021299;28;20106;-64
2023/03/09 08:08:38;;;;;;;32.42;7.75;;;5.40;99.90;;;;;;5053912;28;20116;-65
2023/03/09 08:11:04;;;;;;;19.35;7.25;;;5.40;99.90;;;;;;5054336;28;20037;-65
2023/03/09 08:13:30;;;;;;;14.88;7.85;;;5.60;99.90;;;;;;5052813;28;20109;-65
2023/03/09 08:16:00;;;;;;;14.70;7.53;;;5.70;99.90;;;;;;5053105;28;20032;-66
2023/03/09 08:18:26;;;;;;;20.50;8.80;;;5.70;99.90;;;;;;5056107;28;20170;-66
2023/03/09 08:20:51;;;;;;;17.88;8.85;;;5.70;99.90;;;;;;5057169;28;20036;-65
2023/03/09 08:23:17;;;;;;;14.20;7.63;;;5.70;99.90;;;;;;5061393;28;20048;-66
2023/03/09 08:25:44;;;;;;;18.85;8.90;;;5.70;99.90;;;;;;5065334;28;20025;-65
2023/03/09 08:28:11;;;;;;;15.90;7.55;;;5.70;99.90;;;;;;5046067;28;20115;-65
2023/03/09 08:30:38;;;;;;;13.20;7.20;;;5.60;99.90;;;;;;5068367;28;20033;-66
2023/03/09 08:33:04;;;;;;;24.52;8.63;;;5.60;99.90;;;;;;5061259;28;20570;-66
2023/03/09 08:35:32;;;;;;;24.30;6.70;;;5.60;99.90;;;;;;5068038;28;20054;-66
2023/03/09 08:37:59;;;;;;;14.05;5.72;;;5.60;99.90;;;;;;5066566;28;20019;-66
2023/03/09 08:40:25;;;;;;;19.40;6.43;;;5.90;99.90;;;;;;5067919;28;20105;-66
2023/03/09 08:42:50;;;;;;;18.80;6.55;;;6.00;99.90;;;;;;5066178;28;20044;-65
2023/03/09 08:45:16;;;;;;;22.80;7.10;;;5.90;99.90;;;;;;5070024;28;20035;-66
2023/03/09 08:47:42;;;;;;;11.48;6.15;;;5.80;99.90;;;;;;5073393;28;20559;-66
2023/03/09 08:50:09;;;;;;;18.52;6.32;;;5.70;99.90;;;;;;5070564;28;20087;-67
2023/03/09 08:52:37;;;;;;;38.50;6.80;;;5.80;99.90;;;;;;5069221;28;20070;-65
2023/03/09 08:55:05;;;;;;;17.33;7.72;;;5.80;99.90;;;;;;5071997;28;20039;-67
2023/03/09 08:57:31;;;;;;;19.58;7.80;;;5.70;99.90;;;;;;5068365;28;20075;-66
2023/03/09 08:59:57;;;;;;;14.85;7.50;;;5.70;99.90;;;;;;5067586;28;20021;-67
2023/03/09 09:02:23;;;;;;;22.33;8.05;;;5.70;99.90;;;;;;5067984;28;20108;-66
2023/03/09 09:04:48;;;;;;;39.35;15.45;;;5.70;99.90;;;;;;5053094;28;20052;-67
2023/03/09 09:07:15;;;;;;;37.70;14.80;;;5.70;99.90;;;;;;5071362;28;20028;-66
2023/03/09 09:09:41;;;;;;;57.15;19.27;;;5.70;99.90;;;;;;5068772;28;20028;-66
2023/03/09 09:12:08;;;;;;;25.35;10.70;;;5.80;99.90;;;;;;5066685;28;20402;-66
2023/03/09 09:14:37;;;;;;;77.93;23.70;;;5.80;99.90;;;;;;5068716;28;20033;-67
2023/03/09 09:17:03;;;;;;;28.13;11.07;;;5.80;99.90;;;;;;5070912;28;20548;-67
2023/03/09 09:19:29;;;;;;;121.70;33.38;;;5.80;99.90;;;;;;5070975;28;20062;-67
2023/03/09 09:21:55;;;;;;;68.03;22.08;;;5.80;99.90;;;;;;5073119;28;20032;-66
2023/03/09 09:24:21;;;;;;;171.27;46.80;;;5.90;99.90;;;;;;5067737;28;20466;-67
2023/03/09 09:26:47;;;;;;;92.40;31.55;;;5.90;99.90;;;;;;5068553;28;20036;-66
2023/03/09 09:29:13;;;;;;;35.90;14.13;;;5.90;99.90;;;;;;5071121;28;20031;-66
2023/03/09 09:31:39;;;;;;;15.70;8.10;;;6.00;99.90;;;;;;5069498;28;20036;-66
2023/03/09 09:34:05;;;;;;;22.98;9.95;;;6.10;99.90;;;;;;5068442;28;20029;-66
2023/03/09 09:36:33;;;;;;;18.40;10.30;;;6.20;99.90;;;;;;5070363;28;20035;-66
2023/03/09 09:38:58;;;;;;;76.30;31.58;;;6.10;99.90;;;;;;5071277;28;20918;-66
2023/03/09 09:41:39;;;;;;;42.50;20.10;;;6.10;99.90;;;;;;5069822;28;20035;-67
2023/03/09 09:44:09;;;;;;;60.30;26.02;;;6.10;99.90;;;;;;5069007;28;20021;-67
2023/03/09 09:46:36;;;;;;;26.13;13.25;;;6.10;99.90;;;;;;5070369;28;20036;-65
2023/03/09 09:49:03;;;;;;;19.55;10.75;;;6.10;99.90;;;;;;5073573;28;20075;-66
2023/03/09 09:51:59;;;;;;;18.65;10.52;;;6.20;99.90;;;;;;5071546;28;20039;-66
2023/03/09 09:54:30;;;;;;;18.50;8.50;;;6.20;99.90;;;;;;5069445;28;20399;-66
2023/03/09 09:56:59;;;;;;;26.70;13.05;;;6.30;99.90;;;;;;5066237;28;20025;-66
2023/03/09 09:59:40;;;;;;;17.45;8.40;;;6.40;99.90;;;;;;5050167;28;20029;-66
2023/03/09 10:02:08;;;;;;;26.70;13.70;;;6.40;99.90;;;;;;5061029;28;20054;-66
2023/03/09 10:04:44;;;;;;;26.90;13.05;;;6.50;99.90;;;;;;5046928;28;20059;-66
2023/03/09 10:07:20;;;;;;;31.60;16.83;;;6.50;99.90;;;;;;5065181;28;20028;-65
2023/03/09 10:10:01;;;;;;;31.20;17.00;;;6.50;99.90;;;;;;5060894;28;20550;-66
2023/03/09 10:12:27;;;;;;;401.90;161.80;;;6.50;99.90;;;;;;5068537;28;21868;-66
2023/03/09 10:15:33;;;;;;;45.85;22.75;;;6.50;99.90;;;;;;5052059;28;20036;-66
2023/03/09 10:18:14;;;;;;;35.15;15.95;;;6.40;99.90;;;;;;5021530;28;20095;-66
2023/03/09 10:20:48;;;;;;;46.63;24.60;;;6.30;99.90;;;;;;5070084;28;20421;-65
2023/03/09 10:23:28;;;;;;;34.20;17.50;;;6.20;99.90;;;;;;5068258;28;20051;-66
2023/03/09 10:26:34;;;;;;;35.78;18.73;;;6.40;99.90;;;;;;5065267;28;20040;-66
2023/03/09 10:29:18;;;;;;;28.10;15.50;;;6.50;99.90;;;;;;5055475;28;20041;-66
2023/03/09 10:31:55;;;;;;;27.92;14.63;;;6.60;99.90;;;;;;5066971;28;20382;-66
2023/03/09 10:34:26;;;;;;;28.27;16.75;;;6.70;99.90;;;;;;5067674;28;20085;-66
2023/03/09 10:37:07;;;;;;;29.30;13.95;;;6.70;99.90;;;;;;5066899;28;20108;-66
2023/03/09 10:39:44;;;;;;;27.30;14.10;;;6.60;99.90;;;;;;5069224;28;20409;-66
2023/03/09 10:42:22;;;;;;;17.50;10.75;;;6.60;99.90;;;;;;5067478;28;20032;-66
2023/03/09 10:45:08;;;;;;;27.02;13.70;;;6.60;99.90;;;;;;5066140;28;20042;-66
2023/03/09 10:47:59;;;;;;;23.05;13.00;;;6.70;99.90;;;;;;5064573;28;20779;-66
2023/03/09 10:50:37;;;;;;;20.02;10.35;;;6.70;99.90;;;;;;5055209;28;20494;-66
2023/03/09 10:53:31;;;;;;;18.40;11.10;;;6.70;99.90;;;;;;5060165;28;20481;-66
2023/03/09 10:56:24;;;;;;;28.40;14.48;;;6.80;99.90;;;;;;5066348;28;20012;-66
2023/03/09 10:59:12;;;;;;;14.05;9.32;;;7.10;99.90;;;;;;5058678;28;20074;-66
2023/03/09 11:01:40;;;;;;;13.18;7.93;;;7.10;99.90;;;;;;5065714;28;20444;-66
2023/03/09 11:04:24;;;;;;;13.60;8.63;;;7.20;99.90;;;;;;5066770;28;20017;-67
2023/03/09 11:06:52;;;;;;;;;;;7.20;99.90;;;;;;5049182;28;20486;-66
2023/03/09 11:09:25;;;;;;;14.05;7.50;;;7.30;99.90;;;;;;5067789;28;20057;-66
2023/03/09 11:11:51;;;;;;;20.10;12.02;;;7.40;99.90;;;;;;5067195;28;20047;-65
2023/03/09 11:14:24;;;;;;;12.70;7.22;;;7.40;99.90;;;;;;5066789;28;20462;-67
2023/03/09 11:16:53;;;;;;;12.20;7.43;;;7.40;99.90;;;;;;5065905;28;20031;-67
2023/03/09 11:19:19;;;;;;;12.65;6.88;;;7.50;99.90;;;;;;5065386;28;20016;-65
2023/03/09 11:21:57;;;;;;;19.80;9.70;;;7.60;99.90;;;;;;5069678;28;20058;-66
2023/03/09 11:24:27;;;;;;;13.20;7.85;;;7.70;99.90;;;;;;5061627;28;20029;-65
2023/03/09 11:27:01;;;;;;;9.63;6.03;;;7.80;99.90;;;;;;5067737;28;20040;-66
2023/03/09 11:29:52;;;;;;;9.73;6.07;;;7.80;99.90;;;;;;5070214;28;20016;-67
2023/03/09 11:32:18;;;;;;;9.50;6.03;;;7.90;99.90;;;;;;5068600;28;20511;-66
2023/03/09 11:34:44;;;;;;;11.38;6.40;;;8.00;99.90;;;;;;5069406;28;20020;-66
2023/03/09 11:37:32;;;;;;;10.85;4.90;;;8.10;99.90;;;;;;5076188;28;20035;-65
2023/03/09 11:40:25;;;;;;;10.45;4.68;;;8.30;99.90;;;;;;5073360;28;20492;-66
2023/03/09 11:43:04;;;;;;;5.77;3.87;;;8.40;99.90;;;;;;5063253;28;20040;-66
2023/03/09 11:45:32;;;;;;;8.43;4.93;;;8.30;99.90;;;;;;5067752;28;20331;-67
2023/03/09 11:48:02;;;;;;;7.57;5.03;;;8.20;99.90;;;;;;5069393;28;20040;-66
2023/03/09 11:50:38;;;;;;;7.38;4.50;;;8.20;99.90;;;;;;5072682;28;20036;-66
2023/03/09 11:53:10;;;;;;;6.05;4.22;;;8.10;99.90;;;;;;5042896;28;20032;-67
2023/03/09 11:55:41;;;;;;;7.20;4.53;;;8.20;99.90;;;;;;5064886;28;20086;-67
2023/03/09 11:58:14;;;;;;;7.22;5.05;;;8.30;99.90;;;;;;5077876;28;20028;-67
2023/03/09 12:00:46;;;;;;;9.10;5.00;;;8.40;99.90;;;;;;5069987;28;20389;-66
2023/03/09 12:03:15;;;;;;;10.50;5.25;;;8.30;99.90;;;;;;5066083;28;20542;-67
2023/03/09 12:05:55;;;;;;;7.03;4.97;;;8.20;99.90;;;;;;5050270;28;20537;-67
2023/03/09 12:08:31;;;;;;;10.48;4.32;;;8.20;99.90;;;;;;5065284;28;20028;-66
2023/03/09 12:11:01;;;;;;;8.38;5.35;;;8.20;99.90;;;;;;5069047;28;20557;-67
2023/03/09 12:13:35;;;;;;;11.13;5.65;;;8.30;99.90;;;;;;5064980;28;20037;-66
2023/03/09 12:16:15;;;;;;;7.07;4.90;;;8.30;99.90;;;;;;5062945;28;20506;-66
2023/03/09 12:19:11;;;;;;;7.80;4.93;;;8.30;99.90;;;;;;5068586;28;20512;-67
2023/03/09 12:21:48;;;;;;;10.57;6.43;;;8.40;99.90;;;;;;5069385;28;20032;-67
2023/03/09 12:24:43;;;;;;;10.63;4.97;;;8.50;99.90;;;;;;5071840;28;20024;-68
2023/03/09 12:27:18;;;;;;;7.63;5.15;;;8.50;99.90;;;;;;5066180;28;20052;-67
2023/03/09 12:29:51;;;;;;;10.43;6.00;;;8.50;99.90;;;;;;5077626;28;20482;-66
2023/03/09 12:32:25;;;;;;;11.50;6.30;;;8.70;99.90;;;;;;5071197;28;20157;-67
2023/03/09 12:35:00;;;;;;;9.55;5.70;;;8.70;99.90;;;;;;5072366;28;20027;-66
2023/03/09 12:37:28;;;;;;;9.98;6.50;;;8.50;99.90;;;;;;5069630;28;20025;-67
2023/03/09 12:40:16;;;;;;;8.82;6.03;;;8.50;99.90;;;;;;5070745;28;20043;-67
2023/03/09 12:42:44;;;;;;;9.48;7.13;;;8.50;99.90;;;;;;5070814;28;20020;-66
2023/03/09 12:45:13;;;;;;;10.25;6.63;;;8.50;99.90;;;;;;5074469;28;20032;-66
2023/03/09 12:47:56;;;;;;;14.18;7.50;;;8.50;99.90;;;;;;5071625;28;20115;-67
2023/03/09 12:50:37;;;;;;;10.27;6.75;;;8.50;99.90;;;;;;5063824;28;20079;-66
2023/03/09 12:53:17;;;;;;;9.80;6.30;;;8.40;99.90;;;;;;5056388;28;20027;-66